sensor_id;sensor_type;location;lat;lon;timestamp;temperature;humidity
49373;DHT22;44113;38.408;-122.974;2022-11-20T00:01:28;20.60;39.70
49373;DHT22;44113;38.408;-122.974;2022-11-20T00:03:56;20.60;39.70
49373;DHT22;44113;38.408;-122.974;2022-11-20T00:06:24;20.60;39.80
49373;DHT22;44113;38.408;-122.974;2022-11-20T00:08:53;20.60;39.90
49373;DHT22;44113;38.408;-122.974;2022-11-20T00:11:22;20.60;39.80
49373;DHT22;44113;38.408;-122.974;2022-11-20T00:13:55;20.60;39.90
49373;DHT22;44113;38.408;-122.974;2022-11-20T00:16:24;20.60;39.90
49373;DHT22;44113;38.408;-122.974;2022-11-20T00:18:51;20.60;40.00
49373;DHT22;44113;38.408;-122.974;2022-11-20T00:21:28;20.60;39.90
49373;DHT22;44113;38.408;-122.974;2022-11-20T00:23:57;20.60;40.00
49373;DHT22;44113;38.408;-122.974;2022-11-20T00:26:26;20.50;39.90
49373;DHT22;44113;38.408;-122.974;2022-11-20T00:28:58;20.50;39.90
49373;DHT22;44113;38.408;-122.974;2022-11-20T00:31:26;20.50;39.90
49373;DHT22;44113;38.408;-122.974;2022-11-20T00:33:53;20.50;40.00
49373;DHT22;44113;38.408;-122.974;2022-11-20T00:36:22;20.50;40.00
49373;DHT22;44113;38.408;-122.974;2022-11-20T00:38:56;20.50;40.00
49373;DHT22;44113;38.408;-122.974;2022-11-20T00:41:24;20.50;40.10
49373;DHT22;44113;38.408;-122.974;2022-11-20T00:43:54;20.50;40.10
49373;DHT22;44113;38.408;-122.974;2022-11-20T00:46:23;20.40;40.00
49373;DHT22;44113;38.408;-122.974;2022-11-20T00:48:51;20.40;40.00
49373;DHT22;44113;38.408;-122.974;2022-11-20T00:51:20;20.50;40.10
49373;DHT22;44113;38.408;-122.974;2022-11-20T00:53:47;20.40;40.00
49373;DHT22;44113;38.408;-122.974;2022-11-20T00:56:16;20.40;40.00
49373;DHT22;44113;38.408;-122.974;2022-11-20T00:58:44;20.40;40.00
49373;DHT22;44113;38.408;-122.974;2022-11-20T01:01:14;20.30;40.00
49373;DHT22;44113;38.408;-122.974;2022-11-20T01:03:43;20.30;39.90
49373;DHT22;44113;38.408;-122.974;2022-11-20T01:06:15;20.40;40.00
49373;DHT22;44113;38.408;-122.974;2022-11-20T01:08:42;20.30;40.10
49373;DHT22;44113;38.408;-122.974;2022-11-20T01:11:15;20.30;40.10
49373;DHT22;44113;38.408;-122.974;2022-11-20T01:13:42;20.30;39.90
49373;DHT22;44113;38.408;-122.974;2022-11-20T01:16:17;20.30;40.60
49373;DHT22;44113;38.408;-122.974;2022-11-20T01:18:46;20.30;40.00
49373;DHT22;44113;38.408;-122.974;2022-11-20T01:21:16;20.30;40.10
49373;DHT22;44113;38.408;-122.974;2022-11-20T01:23:44;20.30;40.10
49373;DHT22;44113;38.408;-122.974;2022-11-20T01:26:19;20.20;39.90
49373;DHT22;44113;38.408;-122.974;2022-11-20T01:28:47;20.20;39.80
49373;DHT22;44113;38.408;-122.974;2022-11-20T01:31:21;20.20;40.20
49373;DHT22;44113;38.408;-122.974;2022-11-20T01:33:49;20.20;40.40
49373;DHT22;44113;38.408;-122.974;2022-11-20T01:36:18;20.20;40.30
49373;DHT22;44113;38.408;-122.974;2022-11-20T01:38:46;20.20;40.40
49373;DHT22;44113;38.408;-122.974;2022-11-20T01:41:14;20.20;40.40
49373;DHT22;44113;38.408;-122.974;2022-11-20T01:44:02;20.20;40.50
49373;DHT22;44113;38.408;-122.974;2022-11-20T01:46:30;20.20;40.50
49373;DHT22;44113;38.408;-122.974;2022-11-20T01:49:15;20.20;40.40
49373;DHT22;44113;38.408;-122.974;2022-11-20T01:51:43;20.20;40.30
49373;DHT22;44113;38.408;-122.974;2022-11-20T01:54:19;20.20;40.40
49373;DHT22;44113;38.408;-122.974;2022-11-20T01:56:48;20.20;40.40
49373;DHT22;44113;38.408;-122.974;2022-11-20T01:59:18;20.20;40.50
49373;DHT22;44113;38.408;-122.974;2022-11-20T02:01:45;20.10;40.50
49373;DHT22;44113;38.408;-122.974;2022-11-20T02:04:13;20.10;40.50
49373;DHT22;44113;38.408;-122.974;2022-11-20T02:06:45;20.10;40.40
49373;DHT22;44113;38.408;-122.974;2022-11-20T02:09:14;20.10;40.50
49373;DHT22;44113;38.408;-122.974;2022-11-20T02:11:41;20.00;40.40
49373;DHT22;44113;38.408;-122.974;2022-11-20T02:14:08;20.00;40.50
49373;DHT22;44113;38.408;-122.974;2022-11-20T02:16:43;20.00;40.80
49373;DHT22;44113;38.408;-122.974;2022-11-20T02:24:34;19.90;41.20
49373;DHT22;44113;38.408;-122.974;2022-11-20T02:27:10;19.90;41.10
49373;DHT22;44113;38.408;-122.974;2022-11-20T02:29:47;19.90;41.30
49373;DHT22;44113;38.408;-122.974;2022-11-20T02:32:26;19.90;41.20
49373;DHT22;44113;38.408;-122.974;2022-11-20T02:34:53;19.90;41.20
49373;DHT22;44113;38.408;-122.974;2022-11-20T02:37:21;19.90;41.20
49373;DHT22;44113;38.408;-122.974;2022-11-20T02:39:50;19.90;41.30
49373;DHT22;44113;38.408;-122.974;2022-11-20T02:42:18;19.90;41.20
49373;DHT22;44113;38.408;-122.974;2022-11-20T02:44:45;19.90;41.20
49373;DHT22;44113;38.408;-122.974;2022-11-20T02:47:12;19.90;41.30
49373;DHT22;44113;38.408;-122.974;2022-11-20T02:49:38;19.90;41.30
49373;DHT22;44113;38.408;-122.974;2022-11-20T02:52:05;19.90;41.30
49373;DHT22;44113;38.408;-122.974;2022-11-20T02:54:31;19.80;41.30
49373;DHT22;44113;38.408;-122.974;2022-11-20T02:56:58;19.80;41.30
49373;DHT22;44113;38.408;-122.974;2022-11-20T02:59:24;19.90;41.50
49373;DHT22;44113;38.408;-122.974;2022-11-20T03:01:50;19.90;41.60
49373;DHT22;44113;38.408;-122.974;2022-11-20T03:04:17;19.80;41.50
49373;DHT22;44113;38.408;-122.974;2022-11-20T03:06:43;19.90;41.70
49373;DHT22;44113;38.408;-122.974;2022-11-20T03:09:10;19.90;41.50
49373;DHT22;44113;38.408;-122.974;2022-11-20T03:11:36;19.90;41.60
49373;DHT22;44113;38.408;-122.974;2022-11-20T03:14:04;19.90;41.60
49373;DHT22;44113;38.408;-122.974;2022-11-20T03:16:31;19.90;41.50
49373;DHT22;44113;38.408;-122.974;2022-11-20T03:18:58;19.90;41.70
49373;DHT22;44113;38.408;-122.974;2022-11-20T03:21:25;19.80;41.50
49373;DHT22;44113;38.408;-122.974;2022-11-20T03:23:54;19.90;41.60
49373;DHT22;44113;38.408;-122.974;2022-11-20T03:26:25;19.80;41.40
49373;DHT22;44113;38.408;-122.974;2022-11-20T03:28:55;19.80;41.50
49373;DHT22;44113;38.408;-122.974;2022-11-20T03:31:27;19.80;41.50
49373;DHT22;44113;38.408;-122.974;2022-11-20T03:33:54;19.80;41.60
49373;DHT22;44113;38.408;-122.974;2022-11-20T03:36:22;19.80;41.90
49373;DHT22;44113;38.408;-122.974;2022-11-20T03:38:49;20.00;41.50
49373;DHT22;44113;38.408;-122.974;2022-11-20T03:41:27;20.40;41.40
49373;DHT22;44113;38.408;-122.974;2022-11-20T03:43:56;21.00;40.70
49373;DHT22;44113;38.408;-122.974;2022-11-20T03:46:23;21.40;39.90
49373;DHT22;44113;38.408;-122.974;2022-11-20T03:48:50;21.70;39.20
49373;DHT22;44113;38.408;-122.974;2022-11-20T03:51:28;21.90;38.70
49373;DHT22;44113;38.408;-122.974;2022-11-20T03:53:58;22.10;38.30
49373;DHT22;44113;38.408;-122.974;2022-11-20T03:56:28;22.20;38.00
49373;DHT22;44113;38.408;-122.974;2022-11-20T03:58:55;22.30;37.90
49373;DHT22;44113;38.408;-122.974;2022-11-20T04:01:26;22.30;37.60
49373;DHT22;44113;38.408;-122.974;2022-11-20T04:03:55;22.40;37.50
49373;DHT22;44113;38.408;-122.974;2022-11-20T04:06:24;22.50;37.40
49373;DHT22;44113;38.408;-122.974;2022-11-20T04:08:51;22.70;37.10
49373;DHT22;44113;38.408;-122.974;2022-11-20T04:11:20;23.00;36.90
49373;DHT22;44113;38.408;-122.974;2022-11-20T04:13:49;23.30;36.60
49373;DHT22;44113;38.408;-122.974;2022-11-20T04:16:16;23.60;36.20
49373;DHT22;44113;38.408;-122.974;2022-11-20T04:18:43;23.90;35.90
49373;DHT22;44113;38.408;-122.974;2022-11-20T04:21:10;24.30;35.40
49373;DHT22;44113;38.408;-122.974;2022-11-20T04:23:37;24.60;35.10
49373;DHT22;44113;38.408;-122.974;2022-11-20T04:26:08;25.00;34.80
49373;DHT22;44113;38.408;-122.974;2022-11-20T04:28:35;25.30;34.50
49373;DHT22;44113;38.408;-122.974;2022-11-20T04:31:10;25.50;34.20
49373;DHT22;44113;38.408;-122.974;2022-11-20T04:33:38;25.70;34.10
49373;DHT22;44113;38.408;-122.974;2022-11-20T04:36:14;25.90;34.10
49373;DHT22;44113;38.408;-122.974;2022-11-20T04:38:41;26.10;34.40
49373;DHT22;44113;38.408;-122.974;2022-11-20T04:41:14;26.30;34.50
49373;DHT22;44113;38.408;-122.974;2022-11-20T04:43:41;26.50;34.60
49373;DHT22;44113;38.408;-122.974;2022-11-20T04:46:11;26.60;34.60
49373;DHT22;44113;38.408;-122.974;2022-11-20T04:48:39;26.80;34.60
49373;DHT22;44113;38.408;-122.974;2022-11-20T04:51:06;27.00;34.60
49373;DHT22;44113;38.408;-122.974;2022-11-20T04:53:32;27.20;34.70
49373;DHT22;44113;38.408;-122.974;2022-11-20T04:56:07;27.30;34.60
49373;DHT22;44113;38.408;-122.974;2022-11-20T04:58:35;27.50;34.70
49373;DHT22;44113;38.408;-122.974;2022-11-20T05:01:11;27.70;34.80
49373;DHT22;44113;38.408;-122.974;2022-11-20T05:03:39;27.90;34.80
49373;DHT22;44113;38.408;-122.974;2022-11-20T05:06:07;28.00;34.90
49373;DHT22;44113;38.408;-122.974;2022-11-20T05:08:34;28.10;35.50
49373;DHT22;44113;38.408;-122.974;2022-11-20T05:11:03;28.30;35.70
49373;DHT22;44113;38.408;-122.974;2022-11-20T05:13:30;28.40;36.40
49373;DHT22;44113;38.408;-122.974;2022-11-20T05:16:11;28.50;37.30
49373;DHT22;44113;38.408;-122.974;2022-11-20T05:18:38;28.60;38.10
49373;DHT22;44113;38.408;-122.974;2022-11-20T05:21:06;28.70;37.60
49373;DHT22;44113;38.408;-122.974;2022-11-20T05:23:33;28.90;37.70
49373;DHT22;44113;38.408;-122.974;2022-11-20T05:26:01;29.00;37.60
49373;DHT22;44113;38.408;-122.974;2022-11-20T05:28:30;29.10;37.40
49373;DHT22;44113;38.408;-122.974;2022-11-20T05:31:03;29.10;37.00
49373;DHT22;44113;38.408;-122.974;2022-11-20T05:33:30;29.10;36.30
49373;DHT22;44113;38.408;-122.974;2022-11-20T05:35:59;29.10;36.10
49373;DHT22;44113;38.408;-122.974;2022-11-20T05:38:26;29.10;35.40
49373;DHT22;44113;38.408;-122.974;2022-11-20T05:40:52;29.10;35.40
49373;DHT22;44113;38.408;-122.974;2022-11-20T05:43:18;29.10;34.90
49373;DHT22;44113;38.408;-122.974;2022-11-20T05:45:53;29.10;34.80
49373;DHT22;44113;38.408;-122.974;2022-11-20T05:48:20;29.10;34.90
49373;DHT22;44113;38.408;-122.974;2022-11-20T05:50:48;29.10;34.80
49373;DHT22;44113;38.408;-122.974;2022-11-20T05:53:14;29.10;34.80
49373;DHT22;44113;38.408;-122.974;2022-11-20T05:55:41;29.20;35.00
49373;DHT22;44113;38.408;-122.974;2022-11-20T05:58:07;29.20;34.90
49373;DHT22;44113;38.408;-122.974;2022-11-20T06:00:34;29.20;34.90
49373;DHT22;44113;38.408;-122.974;2022-11-20T06:03:02;29.30;34.80
49373;DHT22;44113;38.408;-122.974;2022-11-20T06:05:30;29.30;34.80
49373;DHT22;44113;38.408;-122.974;2022-11-20T06:07:56;29.30;34.70
49373;DHT22;44113;38.408;-122.974;2022-11-20T06:10:23;29.30;34.60
49373;DHT22;44113;38.408;-122.974;2022-11-20T06:12:49;29.30;34.60
49373;DHT22;44113;38.408;-122.974;2022-11-20T06:15:16;29.40;34.60
49373;DHT22;44113;38.408;-122.974;2022-11-20T06:17:42;29.40;34.50
49373;DHT22;44113;38.408;-122.974;2022-11-20T06:20:10;29.40;34.50
49373;DHT22;44113;38.408;-122.974;2022-11-20T06:22:37;29.40;34.50
49373;DHT22;44113;38.408;-122.974;2022-11-20T06:25:03;29.30;34.50
49373;DHT22;44113;38.408;-122.974;2022-11-20T06:27:30;29.30;34.50
49373;DHT22;44113;38.408;-122.974;2022-11-20T06:29:56;29.30;34.40
49373;DHT22;44113;38.408;-122.974;2022-11-20T06:32:23;29.30;34.50
49373;DHT22;44113;38.408;-122.974;2022-11-20T06:34:50;29.20;34.50
49373;DHT22;44113;38.408;-122.974;2022-11-20T06:37:17;29.20;34.40
49373;DHT22;44113;38.408;-122.974;2022-11-20T06:39:44;29.20;34.40
49373;DHT22;44113;38.408;-122.974;2022-11-20T06:42:11;29.10;34.40
49373;DHT22;44113;38.408;-122.974;2022-11-20T06:44:37;29.10;34.40
49373;DHT22;44113;38.408;-122.974;2022-11-20T06:47:04;29.00;34.40
49373;DHT22;44113;38.408;-122.974;2022-11-20T06:49:31;29.00;34.40
49373;DHT22;44113;38.408;-122.974;2022-11-20T06:52:00;29.00;34.40
49373;DHT22;44113;38.408;-122.974;2022-11-20T06:54:26;28.90;34.40
49373;DHT22;44113;38.408;-122.974;2022-11-20T06:56:53;28.90;34.50
49373;DHT22;44113;38.408;-122.974;2022-11-20T06:59:19;28.80;34.40
49373;DHT22;44113;38.408;-122.974;2022-11-20T07:01:45;28.80;34.50
49373;DHT22;44113;38.408;-122.974;2022-11-20T07:04:12;28.80;34.60
49373;DHT22;44113;38.408;-122.974;2022-11-20T07:06:39;28.70;34.60
49373;DHT22;44113;38.408;-122.974;2022-11-20T07:09:05;28.60;34.50
49373;DHT22;44113;38.408;-122.974;2022-11-20T07:11:32;28.60;34.50
49373;DHT22;44113;38.408;-122.974;2022-11-20T07:13:59;28.60;34.50
49373;DHT22;44113;38.408;-122.974;2022-11-20T07:16:26;28.50;34.60
49373;DHT22;44113;38.408;-122.974;2022-11-20T07:18:54;28.50;34.70
49373;DHT22;44113;38.408;-122.974;2022-11-20T07:21:21;28.40;34.70
49373;DHT22;44113;38.408;-122.974;2022-11-20T07:23:47;28.30;34.70
49373;DHT22;44113;38.408;-122.974;2022-11-20T07:26:14;28.30;34.70
49373;DHT22;44113;38.408;-122.974;2022-11-20T07:28:43;28.30;34.80
49373;DHT22;44113;38.408;-122.974;2022-11-20T07:31:10;28.20;34.80
49373;DHT22;44113;38.408;-122.974;2022-11-20T07:33:37;28.20;35.00
49373;DHT22;44113;38.408;-122.974;2022-11-20T07:36:05;28.10;35.00
49373;DHT22;44113;38.408;-122.974;2022-11-20T07:38:31;28.00;35.00
49373;DHT22;44113;38.408;-122.974;2022-11-20T07:40:58;28.00;35.00
49373;DHT22;44113;38.408;-122.974;2022-11-20T07:43:27;27.90;35.00
49373;DHT22;44113;38.408;-122.974;2022-11-20T07:45:57;27.80;35.00
49373;DHT22;44113;38.408;-122.974;2022-11-20T07:48:24;27.80;35.10
49373;DHT22;44113;38.408;-122.974;2022-11-20T07:50:56;27.70;35.00
49373;DHT22;44113;38.408;-122.974;2022-11-20T07:53:23;27.60;35.10
49373;DHT22;44113;38.408;-122.974;2022-11-20T07:55:50;27.50;35.10
49373;DHT22;44113;38.408;-122.974;2022-11-20T07:58:19;27.50;35.30
49373;DHT22;44113;38.408;-122.974;2022-11-20T08:00:46;27.40;35.40
49373;DHT22;44113;38.408;-122.974;2022-11-20T08:03:12;27.30;35.50
49373;DHT22;44113;38.408;-122.974;2022-11-20T08:05:40;27.30;35.50
49373;DHT22;44113;38.408;-122.974;2022-11-20T08:08:07;27.20;35.50
49373;DHT22;44113;38.408;-122.974;2022-11-20T08:10:34;27.10;35.50
49373;DHT22;44113;38.408;-122.974;2022-11-20T08:13:01;27.10;35.50
49373;DHT22;44113;38.408;-122.974;2022-11-20T08:15:50;27.00;35.60
49373;DHT22;44113;38.408;-122.974;2022-11-20T08:18:19;26.90;35.60
49373;DHT22;44113;38.408;-122.974;2022-11-20T08:20:45;26.90;35.50
49373;DHT22;44113;38.408;-122.974;2022-11-20T08:23:13;26.80;35.60
49373;DHT22;44113;38.408;-122.974;2022-11-20T08:25:39;26.70;35.60
49373;DHT22;44113;38.408;-122.974;2022-11-20T08:28:08;26.70;35.70
49373;DHT22;44113;38.408;-122.974;2022-11-20T08:30:36;26.60;35.60
49373;DHT22;44113;38.408;-122.974;2022-11-20T08:33:06;26.50;35.60
49373;DHT22;44113;38.408;-122.974;2022-11-20T08:35:35;26.50;35.80
49373;DHT22;44113;38.408;-122.974;2022-11-20T08:38:02;26.40;35.80
49373;DHT22;44113;38.408;-122.974;2022-11-20T08:40:29;26.40;35.90
49373;DHT22;44113;38.408;-122.974;2022-11-20T08:42:58;26.30;35.90
49373;DHT22;44113;38.408;-122.974;2022-11-20T08:45:25;26.30;35.90
49373;DHT22;44113;38.408;-122.974;2022-11-20T08:47:52;26.20;35.80
49373;DHT22;44113;38.408;-122.974;2022-11-20T08:50:18;26.10;35.80
49373;DHT22;44113;38.408;-122.974;2022-11-20T08:52:45;26.10;35.90
49373;DHT22;44113;38.408;-122.974;2022-11-20T08:55:12;26.00;36.00
49373;DHT22;44113;38.408;-122.974;2022-11-20T08:57:38;25.90;35.80
49373;DHT22;44113;38.408;-122.974;2022-11-20T09:00:07;25.90;35.90
49373;DHT22;44113;38.408;-122.974;2022-11-20T09:02:33;25.80;36.00
49373;DHT22;44113;38.408;-122.974;2022-11-20T09:05:00;25.80;36.00
49373;DHT22;44113;38.408;-122.974;2022-11-20T09:07:28;25.80;36.10
49373;DHT22;44113;38.408;-122.974;2022-11-20T09:09:56;25.70;36.10
49373;DHT22;44113;38.408;-122.974;2022-11-20T09:12:22;25.70;36.70
49373;DHT22;44113;38.408;-122.974;2022-11-20T09:14:49;25.60;36.00
49373;DHT22;44113;38.408;-122.974;2022-11-20T09:17:15;25.50;36.00
49373;DHT22;44113;38.408;-122.974;2022-11-20T09:19:42;25.50;36.00
49373;DHT22;44113;38.408;-122.974;2022-11-20T09:22:09;25.50;36.00
49373;DHT22;44113;38.408;-122.974;2022-11-20T09:24:35;25.40;35.90
49373;DHT22;44113;38.408;-122.974;2022-11-20T09:27:04;25.40;36.00
49373;DHT22;44113;38.408;-122.974;2022-11-20T09:29:30;25.30;36.00
49373;DHT22;44113;38.408;-122.974;2022-11-20T09:31:57;25.30;36.00
49373;DHT22;44113;38.408;-122.974;2022-11-20T09:34:23;25.20;36.10
49373;DHT22;44113;38.408;-122.974;2022-11-20T09:36:52;25.20;36.10
49373;DHT22;44113;38.408;-122.974;2022-11-20T09:39:18;25.10;36.20
49373;DHT22;44113;38.408;-122.974;2022-11-20T09:47:49;24.90;36.30
49373;DHT22;44113;38.408;-122.974;2022-11-20T09:50:45;24.90;36.30
49373;DHT22;44113;38.408;-122.974;2022-11-20T09:56:09;24.80;36.30
49373;DHT22;44113;38.408;-122.974;2022-11-20T09:58:49;24.80;36.30
49373;DHT22;44113;38.408;-122.974;2022-11-20T10:01:17;24.70;36.40
49373;DHT22;44113;38.408;-122.974;2022-11-20T10:06:32;24.60;36.50
49373;DHT22;44113;38.408;-122.974;2022-11-20T10:09:14;24.60;36.70
49373;DHT22;44113;38.408;-122.974;2022-11-20T10:12:14;24.60;36.60
49373;DHT22;44113;38.408;-122.974;2022-11-20T10:15:09;24.50;36.70
49373;DHT22;44113;38.408;-122.974;2022-11-20T10:20:55;24.40;36.60
49373;DHT22;44113;38.408;-122.974;2022-11-20T10:24:06;24.40;36.70
49373;DHT22;44113;38.408;-122.974;2022-11-20T10:29:32;24.20;36.60
49373;DHT22;44113;38.408;-122.974;2022-11-20T10:32:04;24.20;36.70
49373;DHT22;44113;38.408;-122.974;2022-11-20T10:34:50;24.10;36.60
49373;DHT22;44113;38.408;-122.974;2022-11-20T10:37:23;24.10;36.60
49373;DHT22;44113;38.408;-122.974;2022-11-20T10:40:19;24.00;36.60
49373;DHT22;44113;38.408;-122.974;2022-11-20T10:42:47;24.00;36.60
49373;DHT22;44113;38.408;-122.974;2022-11-20T10:45:36;24.00;36.50
49373;DHT22;44113;38.408;-122.974;2022-11-20T10:50:36;23.90;36.60
49373;DHT22;44113;38.408;-122.974;2022-11-20T10:53:41;23.80;36.50
49373;DHT22;44113;38.408;-122.974;2022-11-20T11:01:28;23.70;36.50
49373;DHT22;44113;38.408;-122.974;2022-11-20T11:03:55;23.60;36.50
49373;DHT22;44113;38.408;-122.974;2022-11-20T11:06:39;23.60;36.50
49373;DHT22;44113;38.408;-122.974;2022-11-20T11:09:17;23.60;36.50
49373;DHT22;44113;38.408;-122.974;2022-11-20T11:11:45;23.50;36.50
49373;DHT22;44113;38.408;-122.974;2022-11-20T11:14:14;23.50;36.50
49373;DHT22;44113;38.408;-122.974;2022-11-20T11:16:52;23.50;36.50
49373;DHT22;44113;38.408;-122.974;2022-11-20T11:19:19;23.40;36.50
49373;DHT22;44113;38.408;-122.974;2022-11-20T11:21:47;23.40;36.50
49373;DHT22;44113;38.408;-122.974;2022-11-20T11:24:25;23.40;36.40
49373;DHT22;44113;38.408;-122.974;2022-11-20T11:26:57;23.30;36.50
49373;DHT22;44113;38.408;-122.974;2022-11-20T11:29:24;23.20;36.50
49373;DHT22;44113;38.408;-122.974;2022-11-20T11:32:11;23.20;36.50
49373;DHT22;44113;38.408;-122.974;2022-11-20T11:34:38;23.10;36.50
49373;DHT22;44113;38.408;-122.974;2022-11-20T11:37:05;23.10;36.50
49373;DHT22;44113;38.408;-122.974;2022-11-20T11:39:41;23.10;36.60
49373;DHT22;44113;38.408;-122.974;2022-11-20T11:42:13;23.00;36.50
49373;DHT22;44113;38.408;-122.974;2022-11-20T11:44:46;23.00;36.50
49373;DHT22;44113;38.408;-122.974;2022-11-20T11:47:45;23.00;36.50
49373;DHT22;44113;38.408;-122.974;2022-11-20T11:58:24;22.80;36.40
49373;DHT22;44113;38.408;-122.974;2022-11-20T12:03:40;22.70;36.40
49373;DHT22;44113;38.408;-122.974;2022-11-20T12:06:14;22.60;36.40
49373;DHT22;44113;38.408;-122.974;2022-11-20T12:08:53;22.60;36.50
49373;DHT22;44113;38.408;-122.974;2022-11-20T12:14:03;22.50;36.50
49373;DHT22;44113;38.408;-122.974;2022-11-20T12:16:37;22.50;36.50
49373;DHT22;44113;38.408;-122.974;2022-11-20T12:19:12;22.40;36.50
49373;DHT22;44113;38.408;-122.974;2022-11-20T12:22:16;22.40;36.40
49373;DHT22;44113;38.408;-122.974;2022-11-20T12:27:49;22.40;36.40
49373;DHT22;44113;38.408;-122.974;2022-11-20T12:30:20;22.30;36.40
49373;DHT22;44113;38.408;-122.974;2022-11-20T12:44:43;22.10;36.50
49373;DHT22;44113;38.408;-122.974;2022-11-20T12:47:54;22.10;36.50
49373;DHT22;44113;38.408;-122.974;2022-11-20T13:07:06;21.90;36.50
49373;DHT22;44113;38.408;-122.974;2022-11-20T13:09:39;21.80;36.60
49373;DHT22;44113;38.408;-122.974;2022-11-20T13:17:41;21.70;36.70
49373;DHT22;44113;38.408;-122.974;2022-11-20T13:20:15;21.70;36.70
49373;DHT22;44113;38.408;-122.974;2022-11-20T13:25:32;21.70;36.60
49373;DHT22;44113;38.408;-122.974;2022-11-20T13:30:49;21.60;36.70
49373;DHT22;44113;38.408;-122.974;2022-11-20T13:33:23;21.50;36.70
49373;DHT22;44113;38.408;-122.974;2022-11-20T13:36:01;21.50;36.60
49373;DHT22;44113;38.408;-122.974;2022-11-20T13:38:28;21.50;36.60
49373;DHT22;44113;38.408;-122.974;2022-11-20T13:40:59;21.50;36.60
49373;DHT22;44113;38.408;-122.974;2022-11-20T13:43:47;21.50;36.60
49373;DHT22;44113;38.408;-122.974;2022-11-20T13:46:15;21.40;36.70
49373;DHT22;44113;38.408;-122.974;2022-11-20T13:48:43;21.40;36.60
49373;DHT22;44113;38.408;-122.974;2022-11-20T13:51:39;21.30;36.60
49373;DHT22;44113;38.408;-122.974;2022-11-20T13:59:53;21.30;36.70
49373;DHT22;44113;38.408;-122.974;2022-11-20T14:02:25;21.20;36.60
49373;DHT22;44113;38.408;-122.974;2022-11-20T14:04:58;21.20;36.70
49373;DHT22;44113;38.408;-122.974;2022-11-20T14:07:42;21.10;36.60
49373;DHT22;44113;38.408;-122.974;2022-11-20T14:10:27;21.20;36.70
49373;DHT22;44113;38.408;-122.974;2022-11-20T14:12:54;21.10;36.60
49373;DHT22;44113;38.408;-122.974;2022-11-20T14:15:32;21.10;36.60
49373;DHT22;44113;38.408;-122.974;2022-11-20T14:18:11;21.10;36.70
49373;DHT22;44113;38.408;-122.974;2022-11-20T14:20:38;21.00;36.70
49373;DHT22;44113;38.408;-122.974;2022-11-20T14:23:05;21.00;36.90
49373;DHT22;44113;38.408;-122.974;2022-11-20T14:25:36;21.00;36.90
49373;DHT22;44113;38.408;-122.974;2022-11-20T14:28:04;20.90;36.90
49373;DHT22;44113;38.408;-122.974;2022-11-20T14:30:58;20.90;37.00
49373;DHT22;44113;38.408;-122.974;2022-11-20T14:33:26;20.90;37.00
49373;DHT22;44113;38.408;-122.974;2022-11-20T14:35:55;20.90;37.00
49373;DHT22;44113;38.408;-122.974;2022-11-20T14:38:27;20.80;36.90
49373;DHT22;44113;38.408;-122.974;2022-11-20T14:40:53;20.80;36.90
49373;DHT22;44113;38.408;-122.974;2022-11-20T14:43:27;20.80;37.00
49373;DHT22;44113;38.408;-122.974;2022-11-20T14:46:07;20.70;37.00
49373;DHT22;44113;38.408;-122.974;2022-11-20T14:48:48;20.70;37.00
49373;DHT22;44113;38.408;-122.974;2022-11-20T14:54:24;20.60;37.00
49373;DHT22;44113;38.408;-122.974;2022-11-20T14:57:02;20.60;37.00
49373;DHT22;44113;38.408;-122.974;2022-11-20T14:59:33;20.60;36.90
49373;DHT22;44113;38.408;-122.974;2022-11-20T15:02:09;20.60;37.00
49373;DHT22;44113;38.408;-122.974;2022-11-20T15:04:58;20.50;36.90
49373;DHT22;44113;38.408;-122.974;2022-11-20T15:07:27;20.50;36.90
49373;DHT22;44113;38.408;-122.974;2022-11-20T15:10:12;20.50;36.90
49373;DHT22;44113;38.408;-122.974;2022-11-20T15:12:40;20.40;36.90
49373;DHT22;44113;38.408;-122.974;2022-11-20T15:15:12;20.50;36.90
49373;DHT22;44113;38.408;-122.974;2022-11-20T15:17:43;20.40;36.80
49373;DHT22;44113;38.408;-122.974;2022-11-20T15:20:13;20.40;36.80
49373;DHT22;44113;38.408;-122.974;2022-11-20T15:22:40;20.40;36.90
49373;DHT22;44113;38.408;-122.974;2022-11-20T15:25:17;20.40;36.80
49373;DHT22;44113;38.408;-122.974;2022-11-20T15:27:45;20.30;36.80
49373;DHT22;44113;38.408;-122.974;2022-11-20T15:30:17;20.30;36.90
49373;DHT22;44113;38.408;-122.974;2022-11-20T15:32:45;20.30;36.90
49373;DHT22;44113;38.408;-122.974;2022-11-20T15:35:14;20.30;36.90
49373;DHT22;44113;38.408;-122.974;2022-11-20T15:37:42;20.20;36.80
49373;DHT22;44113;38.408;-122.974;2022-11-20T15:40:09;20.20;36.90
49373;DHT22;44113;38.408;-122.974;2022-11-20T15:42:36;20.20;36.90
49373;DHT22;44113;38.408;-122.974;2022-11-20T15:45:03;20.20;36.90
49373;DHT22;44113;38.408;-122.974;2022-11-20T15:47:34;20.10;36.90
49373;DHT22;44113;38.408;-122.974;2022-11-20T15:50:01;20.10;36.90
49373;DHT22;44113;38.408;-122.974;2022-11-20T15:52:28;20.10;37.00
49373;DHT22;44113;38.408;-122.974;2022-11-20T15:54:54;20.10;37.00
49373;DHT22;44113;38.408;-122.974;2022-11-20T15:57:21;20.00;37.00
49373;DHT22;44113;38.408;-122.974;2022-11-20T15:59:47;20.00;37.00
49373;DHT22;44113;38.408;-122.974;2022-11-20T16:02:15;20.00;37.00
49373;DHT22;44113;38.408;-122.974;2022-11-20T16:04:43;20.00;37.00
49373;DHT22;44113;38.408;-122.974;2022-11-20T16:07:10;20.00;37.10
49373;DHT22;44113;38.408;-122.974;2022-11-20T16:09:37;20.00;36.90
49373;DHT22;44113;38.408;-122.974;2022-11-20T16:12:04;19.90;36.90
49373;DHT22;44113;38.408;-122.974;2022-11-20T16:14:30;19.90;37.00
49373;DHT22;44113;38.408;-122.974;2022-11-20T16:17:15;19.90;37.00
49373;DHT22;44113;38.408;-122.974;2022-11-20T16:20:02;19.90;37.00
49373;DHT22;44113;38.408;-122.974;2022-11-20T16:22:29;19.90;37.10
49373;DHT22;44113;38.408;-122.974;2022-11-20T16:24:56;19.80;37.00
49373;DHT22;44113;38.408;-122.974;2022-11-20T16:27:23;19.80;37.10
49373;DHT22;44113;38.408;-122.974;2022-11-20T16:29:51;19.80;37.10
49373;DHT22;44113;38.408;-122.974;2022-11-20T16:32:17;19.80;37.10
49373;DHT22;44113;38.408;-122.974;2022-11-20T16:34:44;19.80;37.10
49373;DHT22;44113;38.408;-122.974;2022-11-20T16:37:10;19.70;37.10
49373;DHT22;44113;38.408;-122.974;2022-11-20T16:39:36;19.80;37.10
49373;DHT22;44113;38.408;-122.974;2022-11-20T16:42:04;19.80;37.00
49373;DHT22;44113;38.408;-122.974;2022-11-20T16:44:31;19.70;37.10